createdAt,value
2019-02-25T00:00:19.791Z,6.80
2019-02-25T00:01:19.734Z,6.70
2019-02-25T00:02:19.708Z,6.90
2019-02-25T00:03:19.698Z,6.20
2019-02-25T00:04:19.693Z,6.20
2019-02-25T00:05:19.680Z,6.50
2019-02-25T00:06:19.677Z,6.50
2019-02-25T00:07:19.690Z,6.50
2019-02-25T00:08:19.646Z,6.50
2019-02-25T00:09:19.634Z,6.30
2019-02-25T00:10:19.622Z,6.60
2019-02-25T00:11:19.610Z,6.60
2019-02-25T00:12:19.607Z,6.50
2019-02-25T00:13:19.592Z,6.10
2019-02-25T00:14:19.580Z,6.30
2019-02-25T00:15:19.584Z,5.70
2019-02-25T00:16:19.557Z,6.30
2019-02-25T00:17:19.546Z,6.00
2019-02-25T00:18:19.549Z,6.70
2019-02-25T00:19:19.526Z,6.10
2019-02-25T00:20:19.521Z,6.10
2019-02-25T00:21:19.520Z,6.70
2019-02-25T00:22:19.494Z,6.00
2019-02-25T00:23:19.486Z,6.30
2019-02-25T00:24:19.487Z,6.30
2019-02-25T00:25:19.463Z,6.20
2019-02-25T00:26:19.458Z,6.20
2019-02-25T00:27:19.447Z,5.90
2019-02-25T00:28:19.432Z,6.20
2019-02-25T00:29:19.427Z,6.50
2019-02-25T00:30:19.423Z,6.10
2019-02-25T00:31:19.402Z,6.20
2019-02-25T00:32:20.424Z,6.20
2019-02-25T00:33:19.381Z,6.40
2019-02-25T00:34:19.371Z,6.60
2019-02-25T00:35:19.371Z,7.30
2019-02-25T00:36:19.369Z,6.70
2019-02-25T00:37:19.336Z,6.80
2019-02-25T00:38:19.333Z,6.60
2019-02-25T00:39:19.322Z,7.30
2019-02-25T00:40:19.305Z,7.10
2019-02-25T00:41:19.294Z,8.00
2019-02-25T00:42:19.286Z,7.90
2019-02-25T00:43:19.282Z,8.70
2019-02-25T00:44:19.280Z,9.30
2019-02-25T00:45:19.263Z,9.40
2019-02-25T00:46:19.246Z,10.00
2019-02-25T00:47:19.232Z,8.90
2019-02-25T00:48:19.290Z,10.00
2019-02-25T00:49:19.217Z,9.90
2019-02-25T00:50:19.207Z,9.50
2019-02-25T00:51:19.191Z,9.20
2019-02-25T00:52:19.186Z,9.40
2019-02-25T00:53:19.174Z,8.60
2019-02-25T00:54:19.163Z,8.90
2019-02-25T00:55:19.178Z,8.70
2019-02-25T00:56:19.143Z,8.60
2019-02-25T00:57:19.129Z,8.50
2019-02-25T00:58:19.115Z,8.80
2019-02-25T00:59:19.117Z,8.50
2019-02-25T01:00:19.101Z,9.30
2019-02-25T01:01:19.092Z,9.40
2019-02-25T01:02:19.088Z,10.40
2019-02-25T01:03:19.062Z,8.80
2019-02-25T01:04:19.060Z,9.00
2019-02-25T01:05:19.043Z,9.00
2019-02-25T01:06:19.030Z,8.70
2019-02-25T01:07:19.030Z,8.50
2019-02-25T01:08:19.016Z,8.70
2019-02-25T01:09:18.998Z,8.70
2019-02-25T01:10:18.988Z,8.90
2019-02-25T01:11:18.978Z,9.30
2019-02-25T01:12:18.966Z,9.10
2019-02-25T01:13:18.967Z,9.00
2019-02-25T01:14:18.971Z,8.50
2019-02-25T01:15:18.940Z,8.30
2019-02-25T01:16:18.928Z,8.20
2019-02-25T01:17:18.915Z,8.10
2019-02-25T01:18:18.909Z,9.20
2019-02-25T01:19:18.899Z,8.50
2019-02-25T01:20:18.882Z,8.50
2019-02-25T01:21:18.874Z,8.20
2019-02-25T01:22:18.861Z,8.50
2019-02-25T01:23:18.849Z,7.50
2019-02-25T01:24:18.849Z,8.00
2019-02-25T01:25:18.842Z,8.10
2019-02-25T01:26:18.819Z,7.80
2019-02-25T01:27:18.810Z,8.40
2019-02-25T01:28:18.791Z,7.90
2019-02-25T01:29:18.789Z,8.00
2019-02-25T01:30:18.775Z,8.10
2019-02-25T01:31:18.777Z,8.50
2019-02-25T01:32:18.755Z,8.40
2019-02-25T01:33:18.763Z,7.50
2019-02-25T01:34:18.734Z,7.90
2019-02-25T01:35:18.721Z,7.80
2019-02-25T01:36:18.723Z,7.50
2019-02-25T01:37:18.704Z,7.50
2019-02-25T01:38:18.695Z,7.70
2019-02-25T01:39:18.683Z,7.80
2019-02-25T01:40:18.672Z,7.20
2019-02-25T01:41:18.666Z,8.10
2019-02-25T01:42:18.650Z,7.60
2019-02-25T01:43:18.649Z,7.70
2019-02-25T01:44:18.625Z,7.70
2019-02-25T01:45:18.614Z,7.20
2019-02-25T01:46:18.611Z,7.30
2019-02-25T01:47:18.594Z,7.50
2019-02-25T01:48:18.590Z,7.70
2019-02-25T01:49:18.584Z,8.10
2019-02-25T01:50:18.566Z,7.40
2019-02-25T01:51:18.554Z,7.90
2019-02-25T01:52:18.542Z,7.40
2019-02-25T01:53:18.529Z,7.80
2019-02-25T01:54:18.523Z,7.60
2019-02-25T01:55:18.522Z,7.80
2019-02-25T01:56:18.504Z,6.70
2019-02-25T01:57:18.483Z,7.50
2019-02-25T01:58:18.473Z,7.80
2019-02-25T01:59:18.461Z,7.10
2019-02-25T02:00:18.461Z,7.50
2019-02-25T02:01:18.457Z,7.10
2019-02-25T02:02:18.432Z,7.60
2019-02-25T02:03:18.417Z,7.20
2019-02-25T02:04:18.412Z,7.50
2019-02-25T02:05:18.397Z,7.20
2019-02-25T02:06:18.389Z,7.60
2019-02-25T02:07:18.379Z,7.30
2019-02-25T02:08:18.367Z,7.00
2019-02-25T02:09:18.356Z,7.40
2019-02-25T02:10:18.346Z,7.10
2019-02-25T02:11:18.332Z,7.80
2019-02-25T02:12:18.328Z,7.40
2019-02-25T02:13:18.313Z,6.90
2019-02-25T02:14:18.303Z,6.90
2019-02-25T02:15:18.294Z,8.10
2019-02-25T02:16:18.286Z,7.00
2019-02-25T02:17:18.275Z,7.00
2019-02-25T02:18:18.268Z,7.00
2019-02-25T02:19:18.272Z,7.30
2019-02-25T02:20:18.239Z,7.20
2019-02-25T02:21:18.228Z,6.60
2019-02-25T02:22:18.228Z,6.90
2019-02-25T02:23:18.233Z,6.90
2019-02-25T02:24:18.208Z,6.80
2019-02-25T02:25:18.186Z,6.70
2019-02-25T02:26:18.175Z,7.00
2019-02-25T02:27:18.163Z,6.60
2019-02-25T02:28:18.154Z,6.80
2019-02-25T02:29:18.143Z,7.30
2019-02-25T02:30:18.155Z,6.70
2019-02-25T02:31:18.170Z,7.40
2019-02-25T02:32:18.123Z,6.60
2019-02-25T02:33:18.162Z,6.00
2019-02-25T02:34:18.120Z,6.40
2019-02-25T02:35:18.085Z,6.90
2019-02-25T02:36:18.075Z,6.30
2019-02-25T02:37:18.074Z,6.90
2019-02-25T02:38:18.048Z,6.20
2019-02-25T02:39:18.045Z,7.10
2019-02-25T02:40:18.029Z,7.00
2019-02-25T02:41:18.024Z,6.30
2019-02-25T02:42:18.024Z,6.50
2019-02-25T02:43:18.026Z,7.20
2019-02-25T02:44:17.997Z,7.10
2019-02-25T02:45:18.030Z,6.40
2019-02-25T02:46:17.977Z,6.90
2019-02-25T02:47:18.014Z,6.60
2019-02-25T02:48:17.952Z,6.40
2019-02-25T02:49:17.949Z,6.40
2019-02-25T02:50:17.932Z,6.40
2019-02-25T02:51:17.929Z,6.60
2019-02-25T02:52:17.911Z,6.40
2019-02-25T02:53:17.947Z,6.50
2019-02-25T02:54:17.911Z,6.90
2019-02-25T02:55:17.922Z,6.40
2019-02-25T02:56:17.864Z,6.10
2019-02-25T02:57:17.858Z,6.40
2019-02-25T02:58:17.839Z,6.40
2019-02-25T02:59:17.840Z,6.20
2019-02-25T03:00:17.824Z,6.10
2019-02-25T03:01:17.806Z,6.50
2019-02-25T03:02:17.803Z,6.80
2019-02-25T03:03:17.811Z,6.30
2019-02-25T03:04:17.777Z,6.20
2019-02-25T03:05:17.780Z,6.80
2019-02-25T03:06:17.768Z,6.10
2019-02-25T03:07:17.747Z,6.30
2019-02-25T03:08:17.740Z,6.30
2019-02-25T03:09:17.725Z,6.40
2019-02-25T03:10:17.721Z,6.90
2019-02-25T03:11:17.705Z,7.00
2019-02-25T03:12:17.696Z,6.80
2019-02-25T03:13:17.679Z,6.70
2019-02-25T03:14:17.669Z,6.40
2019-02-25T03:15:17.665Z,6.30
2019-02-25T03:16:17.659Z,6.20
2019-02-25T03:17:17.640Z,6.70
2019-02-25T03:18:17.638Z,5.90
2019-02-25T03:19:17.618Z,6.10
2019-02-25T03:20:17.611Z,5.90
2019-02-25T03:21:17.595Z,6.30
2019-02-25T03:22:17.589Z,6.30
2019-02-25T03:23:17.577Z,6.40
2019-02-25T03:24:17.565Z,5.80
2019-02-25T03:25:17.573Z,6.40
2019-02-25T03:26:17.544Z,6.40
2019-02-25T03:27:17.535Z,6.00
2019-02-25T03:28:17.524Z,6.20
2019-02-25T03:29:17.517Z,6.20
2019-02-25T03:30:17.572Z,6.10
2019-02-25T03:31:17.489Z,5.80
2019-02-25T03:32:17.482Z,6.70
2019-02-25T03:33:17.491Z,6.10
2019-02-25T03:34:17.485Z,5.80
2019-02-25T03:35:17.450Z,6.20
2019-02-25T03:36:17.464Z,6.10
2019-02-25T03:37:17.482Z,6.20
2019-02-25T03:38:17.420Z,5.80
2019-02-25T03:39:17.425Z,6.00
2019-02-25T03:40:17.401Z,6.00
2019-02-25T03:41:17.388Z,6.00
2019-02-25T03:42:17.376Z,5.90
2019-02-25T03:43:17.372Z,5.80
2019-02-25T03:44:17.356Z,6.10
2019-02-25T03:45:17.352Z,6.00
2019-02-25T03:46:17.331Z,6.40
2019-02-25T03:47:17.322Z,6.30
2019-02-25T03:48:17.316Z,6.00
2019-02-25T03:49:17.297Z,6.20
2019-02-25T03:50:17.308Z,5.80
2019-02-25T03:51:17.286Z,6.30
2019-02-25T03:52:17.268Z,6.00
2019-02-25T03:53:17.258Z,5.40
2019-02-25T03:54:17.251Z,6.30
2019-02-25T03:55:17.256Z,5.60
2019-02-25T03:56:17.253Z,5.60
2019-02-25T03:57:17.232Z,6.10
2019-02-25T03:58:17.205Z,6.20
2019-02-25T03:59:17.195Z,5.90
2019-02-25T04:00:17.184Z,6.40
2019-02-25T04:01:17.175Z,5.70
2019-02-25T04:02:17.173Z,5.80
2019-02-25T04:03:17.154Z,5.70
2019-02-25T04:04:17.147Z,5.80
2019-02-25T04:05:17.136Z,5.70
2019-02-25T04:06:17.120Z,5.80
2019-02-25T04:07:17.111Z,5.80
2019-02-25T04:08:17.110Z,5.80
2019-02-25T04:09:17.098Z,5.60
2019-02-25T04:10:17.084Z,5.80
2019-02-25T04:11:17.074Z,5.70
2019-02-25T04:12:17.066Z,5.30
2019-02-25T04:13:17.061Z,5.80
2019-02-25T04:14:17.040Z,6.40
2019-02-25T04:15:17.054Z,6.10
2019-02-25T04:16:17.023Z,6.30
2019-02-25T04:17:17.015Z,5.60
2019-02-25T04:18:16.993Z,5.40
2019-02-25T04:19:16.995Z,5.70
2019-02-25T04:20:16.979Z,6.40
2019-02-25T04:21:16.959Z,5.70
2019-02-25T04:22:16.953Z,6.10
2019-02-25T04:23:16.949Z,5.60
2019-02-25T04:24:16.930Z,5.30
2019-02-25T04:25:16.937Z,6.10
2019-02-25T04:26:16.923Z,5.70
2019-02-25T04:27:16.895Z,5.70
2019-02-25T04:28:16.886Z,5.70
2019-02-25T04:29:16.874Z,5.40
2019-02-25T04:30:16.871Z,5.80
2019-02-25T04:31:16.869Z,5.60
2019-02-25T04:32:16.847Z,5.40
2019-02-25T04:33:16.832Z,5.30
2019-02-25T04:34:16.828Z,5.20
2019-02-25T04:35:16.817Z,5.70
2019-02-25T04:36:16.807Z,5.70
2019-02-25T04:37:16.799Z,5.70
2019-02-25T04:38:16.785Z,5.70
2019-02-25T04:39:16.768Z,5.70
2019-02-25T04:40:16.760Z,6.20
2019-02-25T04:41:16.748Z,6.00
2019-02-25T04:42:16.744Z,5.60
2019-02-25T04:43:16.730Z,5.80
2019-02-25T04:44:16.720Z,5.80
2019-02-25T04:45:16.805Z,5.20
2019-02-25T04:46:16.700Z,6.20
2019-02-25T04:47:16.682Z,5.70
2019-02-25T04:48:16.682Z,6.10
2019-02-25T04:49:16.663Z,5.80
2019-02-25T04:50:16.660Z,5.20
2019-02-25T04:51:16.694Z,5.70
2019-02-25T04:52:16.629Z,5.40
2019-02-25T04:53:16.624Z,5.50
2019-02-25T04:54:16.611Z,5.70
2019-02-25T04:55:16.598Z,5.20
2019-02-25T04:56:16.585Z,5.20
2019-02-25T04:57:16.580Z,5.80
2019-02-25T04:58:16.650Z,5.80
2019-02-25T04:59:16.558Z,6.00
2019-02-25T05:00:16.578Z,5.80
2019-02-25T05:01:16.534Z,5.50
2019-02-25T05:02:16.520Z,5.20
2019-02-25T05:03:16.512Z,6.20
2019-02-25T05:04:16.499Z,5.60
2019-02-25T05:05:16.492Z,5.20
2019-02-25T05:06:16.487Z,5.30
2019-02-25T05:07:16.465Z,5.50
2019-02-25T05:08:16.460Z,5.80
2019-02-25T05:09:16.455Z,5.50
2019-02-25T05:10:16.457Z,5.50
2019-02-25T05:11:16.424Z,5.00
2019-02-25T05:12:16.420Z,5.60
2019-02-25T05:13:16.399Z,5.50
2019-02-25T05:14:16.393Z,5.20
2019-02-25T05:15:16.386Z,5.90
2019-02-25T05:16:16.373Z,5.30
2019-02-25T05:17:16.363Z,4.80
2019-02-25T05:18:16.361Z,5.30
2019-02-25T05:19:16.338Z,5.60
2019-02-25T05:20:16.328Z,5.80
2019-02-25T05:21:16.324Z,5.00
2019-02-25T05:22:16.315Z,5.40
2019-02-25T05:23:16.316Z,5.30
2019-02-25T05:24:16.289Z,5.80
2019-02-25T05:25:16.276Z,5.70
2019-02-25T05:26:16.264Z,5.10
2019-02-25T05:27:16.271Z,5.60
2019-02-25T05:28:16.258Z,4.90
2019-02-25T05:29:16.234Z,5.50
2019-02-25T05:30:16.225Z,5.20
2019-02-25T05:31:16.216Z,5.40
2019-02-25T05:32:16.205Z,5.30
2019-02-25T05:33:16.205Z,5.20
2019-02-25T05:34:16.193Z,6.10
2019-02-25T05:35:16.172Z,5.20
2019-02-25T05:36:16.452Z,5.20
2019-02-25T05:37:16.147Z,5.80
2019-02-25T05:38:16.139Z,5.30
2019-02-25T05:39:16.134Z,5.20
2019-02-25T05:40:16.126Z,5.10
2019-02-25T05:41:16.107Z,5.10
2019-02-25T05:42:16.106Z,5.30
2019-02-25T05:43:16.088Z,5.70
2019-02-25T05:44:16.080Z,5.00
2019-02-25T05:45:16.078Z,5.30
2019-02-25T05:46:16.079Z,4.80
2019-02-25T05:47:16.043Z,5.00
2019-02-25T05:48:16.034Z,5.60
2019-02-25T05:49:16.018Z,5.20
2019-02-25T05:50:16.014Z,5.20
2019-02-25T05:51:16.001Z,5.30
2019-02-25T05:52:15.989Z,5.60
2019-02-25T05:53:15.980Z,5.30
2019-02-25T05:54:15.970Z,5.40
2019-02-25T05:55:15.961Z,5.70
2019-02-25T05:56:15.951Z,5.50
2019-02-25T05:57:15.943Z,5.10
2019-02-25T05:58:15.930Z,5.60
2019-02-25T05:59:15.933Z,5.70
2019-02-25T06:00:15.906Z,5.40
2019-02-25T06:01:15.894Z,5.80
2019-02-25T06:02:15.886Z,4.80
2019-02-25T06:03:15.889Z,5.80
2019-02-25T06:05:24.702Z,4.50
2019-02-25T06:06:24.668Z,5.10
2019-02-25T06:07:24.652Z,5.20
2019-02-25T06:08:24.654Z,4.90
2019-02-25T06:09:24.632Z,5.20
2019-02-25T06:10:24.636Z,5.30
2019-02-25T06:11:24.620Z,5.00
2019-02-25T06:12:24.596Z,5.50
2019-02-25T06:13:24.587Z,5.70
2019-02-25T06:14:24.574Z,5.30
2019-02-25T06:15:24.581Z,5.50
2019-02-25T06:16:24.559Z,5.30
2019-02-25T06:17:24.546Z,5.40
2019-02-25T06:18:24.530Z,5.80
2019-02-25T06:19:24.527Z,5.50
2019-02-25T06:20:24.511Z,5.10
2019-02-25T06:21:24.510Z,5.30
2019-02-25T06:22:24.493Z,5.40
2019-02-25T06:23:24.477Z,5.40
2019-02-25T06:24:24.466Z,5.40
2019-02-25T06:25:24.465Z,5.90
2019-02-25T06:26:24.473Z,5.70
2019-02-25T06:27:30.787Z,5.80
2019-02-25T06:28:25.425Z,6.40
2019-02-25T06:29:24.413Z,5.60
2019-02-25T06:30:24.409Z,5.60
2019-02-25T06:31:24.404Z,6.10
2019-02-25T06:32:24.381Z,6.00
2019-02-25T06:33:24.390Z,5.50
2019-02-25T06:34:24.368Z,5.60
2019-02-25T06:35:24.348Z,6.00
2019-02-25T06:36:24.336Z,5.50
2019-02-25T06:37:24.334Z,5.60
2019-02-25T06:38:24.326Z,6.10
2019-02-25T06:39:24.313Z,5.50
2019-02-25T06:40:24.298Z,5.30
2019-02-25T06:41:24.281Z,5.80
2019-02-25T06:42:24.282Z,5.80
2019-02-25T06:43:24.272Z,5.80
2019-02-25T06:44:24.262Z,5.10
2019-02-25T06:45:24.239Z,5.50
2019-02-25T06:46:24.260Z,5.60
2019-02-25T06:47:24.218Z,5.70
2019-02-25T06:48:24.206Z,5.80
2019-02-25T06:49:24.203Z,5.70
2019-02-25T06:50:24.188Z,5.80
2019-02-25T06:51:24.174Z,6.60
2019-02-25T06:52:24.163Z,5.30
2019-02-25T06:53:24.157Z,5.60
2019-02-25T06:54:24.146Z,5.20
2019-02-25T06:55:24.138Z,5.90
2019-02-25T06:56:24.120Z,5.50
2019-02-25T06:57:24.110Z,5.70
2019-02-25T06:58:24.101Z,5.50
2019-02-25T06:59:24.091Z,5.50
2019-02-25T07:00:24.097Z,5.40
2019-02-25T07:01:24.078Z,5.60
2019-02-25T07:02:24.078Z,5.50
2019-02-25T07:03:24.046Z,5.70
2019-02-25T07:04:24.037Z,5.70
2019-02-25T07:05:24.034Z,5.40
2019-02-25T07:06:24.021Z,5.00
2019-02-25T07:07:24.025Z,5.20
2019-02-25T07:08:24.005Z,5.40
2019-02-25T07:09:23.984Z,6.10
2019-02-25T07:10:23.970Z,5.70
2019-02-25T07:11:23.959Z,5.70
2019-02-25T07:12:23.950Z,5.90
2019-02-25T07:13:23.941Z,5.50
2019-02-25T07:14:23.934Z,5.70
2019-02-25T07:15:23.921Z,5.70
2019-02-25T07:16:23.908Z,5.80
2019-02-25T07:17:23.895Z,6.20
2019-02-25T07:18:23.893Z,5.80
2019-02-25T07:19:23.897Z,5.50
2019-02-25T07:20:23.887Z,5.50
2019-02-25T07:21:23.879Z,5.50
2019-02-25T07:22:23.847Z,5.80
2019-02-25T07:23:23.833Z,5.60
2019-02-25T07:24:23.826Z,6.00
2019-02-25T07:25:23.812Z,5.30
2019-02-25T07:26:23.810Z,5.40
2019-02-25T07:27:23.790Z,5.70
2019-02-25T07:28:23.776Z,5.80
2019-02-25T07:29:23.773Z,5.80
2019-02-25T07:30:23.757Z,5.10
2019-02-25T07:31:23.744Z,5.90
2019-02-25T07:32:23.746Z,6.10
2019-02-25T07:33:23.725Z,5.70
2019-02-25T07:34:23.714Z,5.40
2019-02-25T07:35:25.806Z,5.50
2019-02-25T07:36:23.690Z,5.80
2019-02-25T07:37:23.718Z,5.70
2019-02-25T07:38:23.684Z,5.20
2019-02-25T07:39:23.659Z,5.30
2019-02-25T07:40:23.647Z,5.50
2019-02-25T07:41:23.646Z,6.00
2019-02-25T07:42:23.635Z,5.60
2019-02-25T07:43:23.630Z,5.90
2019-02-25T07:44:23.615Z,6.40
2019-02-25T07:45:23.627Z,6.00
2019-02-25T07:46:23.583Z,5.50
2019-02-25T07:47:23.579Z,5.60
2019-02-25T07:48:23.563Z,5.30
2019-02-25T07:49:23.552Z,5.60
2019-02-25T07:50:23.548Z,5.90
2019-02-25T07:51:23.527Z,5.70
2019-02-25T07:52:23.521Z,5.80
2019-02-25T07:53:23.507Z,5.80
2019-02-25T07:54:23.498Z,5.40
2019-02-25T07:55:23.490Z,5.30
2019-02-25T07:56:23.491Z,5.70
2019-02-25T07:57:23.461Z,5.60
2019-02-25T07:58:23.453Z,5.90
2019-02-25T07:59:23.442Z,5.50
2019-02-25T08:00:23.435Z,5.60
2019-02-25T08:01:23.430Z,5.70
2019-02-25T08:02:23.407Z,5.80
2019-02-25T08:03:23.398Z,5.30
2019-02-25T08:04:23.384Z,5.80
2019-02-25T08:05:23.379Z,5.40
2019-02-25T08:06:23.366Z,5.30
2019-02-25T08:07:23.373Z,5.40
2019-02-25T08:08:23.341Z,5.30
2019-02-25T08:09:23.342Z,5.60
2019-02-25T08:10:23.319Z,5.50
2019-02-25T08:11:23.318Z,5.90
2019-02-25T08:12:23.307Z,5.80
2019-02-25T08:13:23.318Z,5.20
2019-02-25T08:14:23.278Z,5.80
2019-02-25T08:15:23.265Z,5.60
2019-02-25T08:16:23.256Z,5.10
2019-02-25T08:17:23.243Z,5.40
2019-02-25T08:18:23.251Z,5.50
2019-02-25T08:19:23.222Z,5.40
2019-02-25T08:20:23.212Z,5.40
2019-02-25T08:21:23.199Z,5.60
2019-02-25T08:22:23.193Z,5.40
2019-02-25T08:23:23.178Z,5.30
2019-02-25T08:24:30.395Z,5.60
2019-02-25T08:25:24.162Z,5.40
2019-02-25T08:26:23.151Z,5.60
2019-02-25T08:27:23.134Z,5.30
2019-02-25T08:28:23.132Z,5.80
2019-02-25T08:29:23.112Z,5.60
2019-02-25T08:30:23.127Z,5.30
2019-02-25T08:31:23.092Z,5.30
2019-02-25T08:32:23.087Z,5.30
2019-02-25T08:33:23.068Z,5.30
2019-02-25T08:34:23.073Z,5.50
2019-02-25T08:35:23.048Z,5.60
2019-02-25T08:36:23.039Z,5.70
2019-02-25T08:37:23.024Z,5.50
2019-02-25T08:38:23.014Z,5.20
2019-02-25T08:39:23.017Z,5.30
2019-02-25T08:40:22.990Z,5.60
2019-02-25T08:41:22.995Z,5.80
2019-02-25T08:42:22.972Z,5.30
2019-02-25T08:43:22.970Z,5.30
2019-02-25T08:44:22.946Z,5.50
2019-02-25T08:45:22.958Z,4.90
2019-02-25T08:46:22.928Z,5.10
2019-02-25T08:47:22.936Z,5.40
2019-02-25T08:48:22.908Z,5.20
2019-02-25T08:49:22.890Z,5.50
2019-02-25T08:50:22.881Z,5.50
2019-02-25T08:51:22.883Z,5.50
2019-02-25T08:52:22.868Z,5.10
2019-02-25T08:53:22.865Z,5.80
2019-02-25T08:54:22.838Z,5.50
2019-02-25T08:55:22.824Z,5.70
2019-02-25T08:56:22.813Z,5.40
2019-02-25T08:57:22.801Z,5.40
2019-02-25T08:58:22.804Z,5.30
2019-02-25T08:59:22.782Z,5.60
2019-02-25T09:00:22.778Z,5.00
2019-02-25T09:01:22.760Z,5.60
2019-02-25T09:02:22.750Z,5.70
2019-02-25T09:03:22.738Z,5.40
2019-02-25T09:04:22.738Z,5.40
2019-02-25T09:05:22.719Z,5.40
2019-02-25T09:06:22.702Z,5.80
2019-02-25T09:07:22.689Z,5.50
2019-02-25T09:08:22.685Z,5.20
2019-02-25T09:09:22.675Z,5.80
2019-02-25T09:10:22.658Z,5.60
2019-02-25T09:11:22.668Z,5.40
2019-02-25T09:12:22.633Z,5.70
2019-02-25T09:13:23.886Z,6.00
2019-02-25T09:14:22.612Z,5.60
2019-02-25T09:15:22.602Z,5.40
2019-02-25T09:16:22.608Z,5.60
2019-02-25T09:17:22.579Z,5.40
2019-02-25T09:18:22.566Z,5.50
2019-02-25T09:19:22.556Z,5.30
2019-02-25T09:20:22.546Z,5.70
2019-02-25T09:21:31.395Z,5.70
2019-02-25T09:22:23.572Z,5.80
2019-02-25T09:23:22.513Z,5.40
2019-02-25T09:24:22.504Z,5.60
2019-02-25T09:25:22.492Z,5.80
2019-02-25T09:26:22.486Z,5.90
2019-02-25T09:27:22.478Z,5.40
2019-02-25T09:28:22.477Z,5.80
2019-02-25T09:29:22.446Z,5.20
2019-02-25T09:30:22.435Z,5.90
2019-02-25T09:31:22.434Z,6.10
2019-02-25T09:32:22.417Z,5.80
2019-02-25T09:33:22.421Z,6.20
2019-02-25T09:34:22.392Z,5.50
2019-02-25T09:35:22.378Z,5.60
2019-02-25T09:36:22.367Z,6.00
2019-02-25T09:37:22.365Z,6.10
2019-02-25T09:38:23.620Z,5.80
2019-02-25T09:39:22.361Z,6.30
2019-02-25T09:40:22.325Z,6.60
2019-02-25T09:41:29.710Z,5.80
2019-02-25T09:42:23.307Z,6.10
2019-02-25T09:43:22.349Z,6.10
2019-02-25T09:44:22.298Z,6.30
2019-02-25T09:45:22.293Z,5.80
2019-02-25T09:46:22.257Z,6.40
2019-02-25T09:47:22.249Z,6.00
2019-02-25T09:48:22.237Z,6.00
2019-02-25T09:49:22.229Z,6.10
2019-02-25T09:50:22.231Z,6.30
2019-02-25T09:51:22.204Z,6.30
2019-02-25T09:52:22.196Z,5.90
2019-02-25T09:53:22.182Z,5.90
2019-02-25T09:54:22.197Z,6.20
2019-02-25T09:55:23.693Z,6.30
2019-02-25T09:56:22.172Z,6.20
2019-02-25T09:57:22.141Z,6.40
2019-02-25T09:58:22.130Z,7.30
2019-02-25T09:59:22.118Z,7.90
2019-02-25T10:00:22.131Z,7.10
2019-02-25T10:01:22.108Z,6.90
2019-02-25T10:02:22.122Z,6.40
2019-02-25T10:03:22.074Z,6.60
2019-02-25T10:04:22.071Z,6.50
2019-02-25T10:05:22.052Z,6.80
2019-02-25T10:06:22.060Z,7.20
2019-02-25T10:07:22.044Z,6.90
2019-02-25T10:08:22.019Z,6.50
2019-02-25T10:09:29.626Z,7.10
2019-02-25T10:10:22.996Z,6.90
2019-02-25T10:11:21.995Z,7.00
2019-02-25T10:12:21.978Z,7.00
2019-02-25T10:13:21.976Z,7.20
2019-02-25T10:14:21.955Z,6.50
2019-02-25T10:15:21.959Z,7.00
2019-02-25T10:16:21.934Z,6.50
2019-02-25T10:17:24.008Z,6.80
2019-02-25T10:18:22.611Z,6.40
2019-02-25T10:19:21.916Z,6.50
2019-02-25T10:20:21.890Z,6.30
2019-02-25T10:21:21.880Z,6.50
2019-02-25T10:22:21.872Z,6.10
2019-02-25T10:23:21.884Z,6.40
2019-02-25T10:24:21.851Z,5.90
2019-02-25T10:25:21.867Z,6.80
2019-02-25T10:26:21.833Z,6.60
2019-02-25T10:27:21.817Z,6.70
2019-02-25T10:28:21.806Z,6.40
2019-02-25T10:29:21.795Z,6.20
2019-02-25T10:30:22.552Z,6.40
2019-02-25T10:31:21.775Z,6.70
2019-02-25T10:32:23.247Z,6.80
2019-02-25T10:33:21.753Z,6.30
2019-02-25T10:34:23.921Z,7.00
2019-02-25T10:35:21.735Z,7.30
2019-02-25T10:36:21.731Z,7.30
2019-02-25T10:37:21.715Z,6.80
2019-02-25T10:38:21.697Z,6.70
2019-02-25T10:39:21.687Z,7.00
2019-02-25T10:40:24.450Z,6.80
2019-02-25T10:41:22.963Z,7.40
2019-02-25T10:42:21.675Z,7.00
2019-02-25T10:43:21.649Z,7.10
2019-02-25T10:44:21.633Z,7.70
2019-02-25T10:45:21.747Z,6.80
2019-02-25T10:46:21.613Z,7.30
2019-02-25T10:47:21.661Z,6.90
2019-02-25T10:48:22.071Z,7.40
2019-02-25T10:49:22.476Z,7.20
2019-02-25T10:50:21.566Z,6.80
2019-02-25T10:51:21.560Z,6.40
2019-02-25T10:52:21.549Z,7.10
2019-02-25T10:53:22.088Z,6.40
2019-02-25T10:54:23.152Z,7.60
2019-02-25T10:55:22.360Z,7.70
2019-02-25T10:56:22.053Z,8.20
2019-02-25T10:57:23.889Z,8.90
2019-02-25T10:58:21.488Z,9.20
2019-02-25T10:59:21.467Z,9.70
2019-02-25T11:00:21.458Z,9.60
2019-02-25T11:01:22.347Z,9.90
2019-02-25T11:02:21.435Z,10.00
2019-02-25T11:03:21.791Z,10.50
2019-02-25T11:04:22.128Z,11.20
2019-02-25T11:05:23.094Z,11.00
2019-02-25T11:06:21.394Z,10.60
2019-02-25T11:07:21.380Z,11.50
2019-02-25T11:08:21.374Z,10.50
2019-02-25T11:09:21.362Z,10.70
2019-02-25T11:10:22.387Z,11.00
2019-02-25T11:11:23.233Z,10.70
2019-02-25T11:12:21.980Z,10.80
2019-02-25T11:13:21.317Z,11.10
2019-02-25T11:14:21.304Z,11.30
2019-02-25T11:15:21.299Z,11.70
2019-02-25T11:16:21.287Z,11.70
2019-02-25T11:17:22.428Z,11.20
2019-02-25T11:18:23.608Z,11.10
2019-02-25T11:19:22.442Z,11.70
2019-02-25T11:20:21.269Z,11.70
2019-02-25T11:21:21.236Z,10.80
2019-02-25T11:22:21.219Z,11.50
2019-02-25T11:23:21.688Z,10.80
2019-02-25T11:24:23.372Z,10.40
2019-02-25T11:25:21.910Z,10.70
2019-02-25T11:26:21.172Z,9.90
2019-02-25T11:27:21.171Z,10.70
2019-02-25T11:28:25.128Z,9.80
2019-02-25T11:29:21.142Z,10.40
2019-02-25T11:30:22.178Z,10.10
2019-02-25T11:31:24.117Z,10.00
2019-02-25T11:32:21.552Z,9.60
2019-02-25T11:33:22.796Z,10.10
2019-02-25T11:34:21.347Z,9.70
2019-02-25T11:35:21.097Z,10.10
2019-02-25T11:36:22.050Z,9.70
2019-02-25T11:37:22.542Z,9.70
2019-02-25T11:38:21.049Z,9.90
2019-02-25T11:39:21.036Z,9.00
2019-02-25T11:40:21.045Z,10.00
2019-02-25T11:41:21.016Z,9.50
2019-02-25T11:42:21.016Z,9.90
2019-02-25T11:43:21.611Z,8.80
2019-02-25T11:44:22.995Z,10.00
2019-02-25T11:45:21.007Z,9.70
2019-02-25T11:46:20.958Z,9.10
2019-02-25T11:47:20.953Z,10.80
2019-02-25T11:48:22.612Z,10.70
2019-02-25T11:49:20.926Z,9.70
2019-02-25T11:50:39.860Z,8.30
2019-02-25T11:51:39.861Z,9.50
2019-02-25T11:53:10.317Z,10.80
2019-02-25T11:54:10.289Z,10.10
2019-02-25T11:55:40.752Z,11.40
2019-02-25T11:56:40.761Z,12.70
2019-02-25T11:58:11.221Z,13.90
2019-02-25T11:59:11.203Z,15.50
2019-02-25T12:00:45.823Z,15.00
2019-02-25T12:01:45.801Z,15.90
2019-02-25T12:03:16.312Z,14.50
2019-02-25T12:04:16.296Z,15.60
2019-02-25T12:05:46.740Z,15.80
2019-02-25T12:06:46.720Z,15.20
2019-02-25T12:08:17.206Z,16.20
2019-02-25T12:09:17.181Z,16.80
2019-02-25T12:10:47.657Z,15.40
2019-02-25T12:11:47.642Z,15.60
2019-02-25T12:13:18.123Z,14.80
2019-02-25T12:14:18.078Z,15.60
2019-02-25T12:15:48.556Z,16.60
2019-02-25T12:16:48.529Z,16.30
2019-02-25T12:18:19.013Z,16.50
2019-02-25T12:19:18.985Z,15.70
2019-02-25T12:20:49.462Z,14.10
2019-02-25T12:21:49.434Z,15.80
2019-02-25T12:23:19.911Z,13.80
2019-02-25T12:24:19.886Z,16.40
2019-02-25T12:25:50.352Z,15.00
2019-02-25T12:26:50.347Z,15.20
2019-02-25T12:28:25.057Z,14.60
2019-02-25T12:29:25.024Z,15.30
2019-02-25T12:30:55.492Z,15.30
2019-02-25T12:31:55.467Z,15.70
2019-02-25T12:33:25.949Z,14.80
2019-02-25T12:34:25.918Z,15.80
2019-02-25T12:35:56.399Z,15.40
2019-02-25T12:36:56.386Z,16.40
2019-02-25T12:38:26.853Z,16.10
2019-02-25T12:39:26.832Z,16.10
2019-02-25T12:40:57.298Z,14.80
2019-02-25T12:41:57.275Z,16.10
2019-02-25T12:43:27.781Z,13.80
2019-02-25T12:44:27.727Z,16.60
2019-02-25T12:45:58.206Z,15.80
2019-02-25T12:46:58.183Z,16.90
2019-02-25T12:48:29.691Z,15.50
2019-02-25T12:49:29.671Z,15.50
2019-02-25T12:51:00.135Z,14.80
2019-02-25T12:52:00.110Z,16.20
2019-02-25T12:53:30.714Z,17.50
2019-02-25T12:54:30.569Z,16.70
2019-02-25T12:56:01.050Z,15.00
2019-02-25T12:57:01.031Z,16.20
2019-02-25T12:58:31.498Z,15.40
2019-02-25T12:59:31.493Z,15.60
2019-02-25T13:01:01.946Z,14.10
2019-02-25T13:02:01.941Z,14.90
2019-02-25T13:03:01.919Z,16.10
2019-02-25T13:04:01.924Z,15.80
2019-02-25T13:05:01.895Z,16.50
2019-02-25T13:06:01.891Z,15.70
2019-02-25T13:07:01.877Z,16.50
2019-02-25T13:08:01.878Z,16.20
2019-02-25T13:09:01.857Z,17.00
2019-02-25T13:10:01.866Z,16.00
2019-02-25T13:11:01.829Z,16.50
2019-02-25T13:12:01.830Z,17.10
2019-02-25T13:13:01.814Z,16.70
2019-02-25T13:14:01.798Z,17.30
2019-02-25T13:15:01.796Z,17.30
2019-02-25T13:16:01.799Z,15.80
2019-02-25T13:17:01.764Z,16.10
2019-02-25T13:18:01.757Z,16.60
2019-02-25T13:19:01.748Z,16.50
2019-02-25T13:20:01.732Z,16.80
2019-02-25T13:21:01.728Z,16.80
2019-02-25T13:22:01.709Z,17.20
2019-02-25T13:23:01.706Z,17.00
2019-02-25T13:24:02.580Z,18.00
2019-02-25T13:25:03.261Z,15.90
2019-02-25T13:26:07.431Z,15.10
2019-02-25T13:27:03.160Z,15.60
2019-02-25T13:28:04.068Z,15.60
2019-02-25T13:29:01.642Z,15.70
2019-02-25T13:30:01.629Z,15.80